sensor_id;sensor_type;location;lat;lon;timestamp;P1;P2;P0
63969;PMS5003;50156;37.772;-122.432;2022-11-20T00:01:05;13;11;
63969;PMS5003;50156;37.772;-122.432;2022-11-20T00:03:34;15;13;
63969;PMS5003;50156;37.772;-122.432;2022-11-20T00:06:02;11;11;
63969;PMS5003;50156;37.772;-122.432;2022-11-20T00:08:32;10;10;
63969;PMS5003;50156;37.772;-122.432;2022-11-20T00:11:03;13;13;
63969;PMS5003;50156;37.772;-122.432;2022-11-20T00:13:32;12;10;
63969;PMS5003;50156;37.772;-122.432;2022-11-20T00:16:01;14;13;
63969;PMS5003;50156;37.772;-122.432;2022-11-20T00:18:32;11;10;
63969;PMS5003;50156;37.772;-122.432;2022-11-20T00:21:02;9;9;
63969;PMS5003;50156;37.772;-122.432;2022-11-20T00:23:31;7;7;
63969;PMS5003;50156;37.772;-122.432;2022-11-20T00:26:01;12;12;
63969;PMS5003;50156;37.772;-122.432;2022-11-20T00:28:31;12;11;
63969;PMS5003;50156;37.772;-122.432;2022-11-20T00:31:02;8;8;
63969;PMS5003;50156;37.772;-122.432;2022-11-20T00:33:31;13;13;
63969;PMS5003;50156;37.772;-122.432;2022-11-20T00:36:00;10;10;
63969;PMS5003;50156;37.772;-122.432;2022-11-20T00:38:30;13;13;
63969;PMS5003;50156;37.772;-122.432;2022-11-20T00:40:58;16;14;
63969;PMS5003;50156;37.772;-122.432;2022-11-20T00:43:30;8;8;
63969;PMS5003;50156;37.772;-122.432;2022-11-20T00:45:59;15;14;
63969;PMS5003;50156;37.772;-122.432;2022-11-20T00:48:29;10;10;
63969;PMS5003;50156;37.772;-122.432;2022-11-20T00:50:58;15;12;
63969;PMS5003;50156;37.772;-122.432;2022-11-20T00:53:27;16;16;
63969;PMS5003;50156;37.772;-122.432;2022-11-20T00:55:57;12;12;
63969;PMS5003;50156;37.772;-122.432;2022-11-20T00:58:29;12;10;
63969;PMS5003;50156;37.772;-122.432;2022-11-20T01:01:02;15;15;
63969;PMS5003;50156;37.772;-122.432;2022-11-20T01:03:33;12;12;
63969;PMS5003;50156;37.772;-122.432;2022-11-20T01:06:02;12;12;
63969;PMS5003;50156;37.772;-122.432;2022-11-20T01:08:34;12;10;
63969;PMS5003;50156;37.772;-122.432;2022-11-20T01:11:04;16;12;
63969;PMS5003;50156;37.772;-122.432;2022-11-20T01:13:36;12;12;
63969;PMS5003;50156;37.772;-122.432;2022-11-20T01:16:06;16;14;
63969;PMS5003;50156;37.772;-122.432;2022-11-20T01:18:37;15;15;
63969;PMS5003;50156;37.772;-122.432;2022-11-20T01:21:07;13;13;
63969;PMS5003;50156;37.772;-122.432;2022-11-20T01:23:38;23;20;
63969;PMS5003;50156;37.772;-122.432;2022-11-20T01:26:08;15;14;
63969;PMS5003;50156;37.772;-122.432;2022-11-20T01:28:39;23;22;
63969;PMS5003;50156;37.772;-122.432;2022-11-20T01:31:13;19;19;
63969;PMS5003;50156;37.772;-122.432;2022-11-20T01:33:44;18;16;
63969;PMS5003;50156;37.772;-122.432;2022-11-20T01:36:14;39;36;
63969;PMS5003;50156;37.772;-122.432;2022-11-20T01:38:43;22;21;
63969;PMS5003;50156;37.772;-122.432;2022-11-20T01:41:13;31;28;
63969;PMS5003;50156;37.772;-122.432;2022-11-20T01:43:42;25;25;
63969;PMS5003;50156;37.772;-122.432;2022-11-20T01:46:14;19;18;
63969;PMS5003;50156;37.772;-122.432;2022-11-20T01:48:46;19;18;
63969;PMS5003;50156;37.772;-122.432;2022-11-20T01:51:23;18;18;
63969;PMS5003;50156;37.772;-122.432;2022-11-20T01:53:57;22;19;
63969;PMS5003;50156;37.772;-122.432;2022-11-20T01:56:30;25;22;
63969;PMS5003;50156;37.772;-122.432;2022-11-20T01:59:03;24;24;
63969;PMS5003;50156;37.772;-122.432;2022-11-20T02:01:34;21;20;
63969;PMS5003;50156;37.772;-122.432;2022-11-20T02:04:03;20;17;
63969;PMS5003;50156;37.772;-122.432;2022-11-20T02:06:34;20;19;
63969;PMS5003;50156;37.772;-122.432;2022-11-20T02:09:06;17;17;
63969;PMS5003;50156;37.772;-122.432;2022-11-20T02:11:35;21;18;
63969;PMS5003;50156;37.772;-122.432;2022-11-20T02:14:04;23;23;
63969;PMS5003;50156;37.772;-122.432;2022-11-20T02:16:33;21;19;
63969;PMS5003;50156;37.772;-122.432;2022-11-20T02:19:06;24;20;
63969;PMS5003;50156;37.772;-122.432;2022-11-20T02:21:40;25;22;
63969;PMS5003;50156;37.772;-122.432;2022-11-20T02:24:15;28;26;
63969;PMS5003;50156;37.772;-122.432;2022-11-20T02:26:46;121;117;
63969;PMS5003;50156;37.772;-122.432;2022-11-20T02:29:19;47;47;
63969;PMS5003;50156;37.772;-122.432;2022-11-20T02:31:51;41;41;
63969;PMS5003;50156;37.772;-122.432;2022-11-20T02:34:22;41;41;
63969;PMS5003;50156;37.772;-122.432;2022-11-20T02:36:50;51;49;
63969;PMS5003;50156;37.772;-122.432;2022-11-20T02:39:20;52;51;
63969;PMS5003;50156;37.772;-122.432;2022-11-20T02:41:50;38;37;
63969;PMS5003;50156;37.772;-122.432;2022-11-20T02:44:20;97;87;
63969;PMS5003;50156;37.772;-122.432;2022-11-20T02:46:49;67;59;
63969;PMS5003;50156;37.772;-122.432;2022-11-20T02:49:17;48;48;
63969;PMS5003;50156;37.772;-122.432;2022-11-20T02:51:45;31;31;
63969;PMS5003;50156;37.772;-122.432;2022-11-20T02:54:14;32;30;
63969;PMS5003;50156;37.772;-122.432;2022-11-20T02:56:43;30;26;
63969;PMS5003;50156;37.772;-122.432;2022-11-20T02:59:12;32;30;
63969;PMS5003;50156;37.772;-122.432;2022-11-20T03:01:40;42;37;
63969;PMS5003;50156;37.772;-122.432;2022-11-20T03:04:09;54;50;
63969;PMS5003;50156;37.772;-122.432;2022-11-20T03:06:37;69;65;
63969;PMS5003;50156;37.772;-122.432;2022-11-20T03:09:06;30;29;
63969;PMS5003;50156;37.772;-122.432;2022-11-20T03:11:34;31;31;
63969;PMS5003;50156;37.772;-122.432;2022-11-20T03:14:04;41;35;
63969;PMS5003;50156;37.772;-122.432;2022-11-20T03:16:33;43;40;
63969;PMS5003;50156;37.772;-122.432;2022-11-20T03:19:01;30;28;
63969;PMS5003;50156;37.772;-122.432;2022-11-20T03:21:29;29;28;
63969;PMS5003;50156;37.772;-122.432;2022-11-20T03:24:00;66;62;
63969;PMS5003;50156;37.772;-122.432;2022-11-20T03:26:28;42;41;
63969;PMS5003;50156;37.772;-122.432;2022-11-20T03:28:57;60;58;
63969;PMS5003;50156;37.772;-122.432;2022-11-20T03:31:28;47;45;
63969;PMS5003;50156;37.772;-122.432;2022-11-20T03:33:57;51;50;
63969;PMS5003;50156;37.772;-122.432;2022-11-20T03:36:26;59;54;
63969;PMS5003;50156;37.772;-122.432;2022-11-20T03:38:55;45;43;
63969;PMS5003;50156;37.772;-122.432;2022-11-20T03:41:25;40;35;
63969;PMS5003;50156;37.772;-122.432;2022-11-20T03:43:55;54;54;
63969;PMS5003;50156;37.772;-122.432;2022-11-20T03:46:26;62;56;
63969;PMS5003;50156;37.772;-122.432;2022-11-20T03:48:56;58;56;
63969;PMS5003;50156;37.772;-122.432;2022-11-20T03:51:25;46;45;
63969;PMS5003;50156;37.772;-122.432;2022-11-20T03:53:56;58;54;
63969;PMS5003;50156;37.772;-122.432;2022-11-20T03:56:27;51;50;
63969;PMS5003;50156;37.772;-122.432;2022-11-20T03:58:58;43;41;
63969;PMS5003;50156;37.772;-122.432;2022-11-20T04:01:27;42;41;
63969;PMS5003;50156;37.772;-122.432;2022-11-20T04:03:56;52;49;
63969;PMS5003;50156;37.772;-122.432;2022-11-20T04:06:26;47;46;
63969;PMS5003;50156;37.772;-122.432;2022-11-20T04:08:56;48;44;
63969;PMS5003;50156;37.772;-122.432;2022-11-20T04:11:27;46;38;
63969;PMS5003;50156;37.772;-122.432;2022-11-20T04:13:57;59;59;
63969;PMS5003;50156;37.772;-122.432;2022-11-20T04:16:28;61;59;
63969;PMS5003;50156;37.772;-122.432;2022-11-20T04:18:59;51;47;
63969;PMS5003;50156;37.772;-122.432;2022-11-20T04:21:28;53;52;
63969;PMS5003;50156;37.772;-122.432;2022-11-20T04:23:58;59;58;
63969;PMS5003;50156;37.772;-122.432;2022-11-20T04:26:27;83;77;
63969;PMS5003;50156;37.772;-122.432;2022-11-20T04:28:57;62;58;
63969;PMS5003;50156;37.772;-122.432;2022-11-20T04:31:26;45;44;
63969;PMS5003;50156;37.772;-122.432;2022-11-20T04:33:59;51;49;
63969;PMS5003;50156;37.772;-122.432;2022-11-20T04:36:28;35;35;
63969;PMS5003;50156;37.772;-122.432;2022-11-20T04:38:58;35;35;
63969;PMS5003;50156;37.772;-122.432;2022-11-20T04:41:29;54;51;
63969;PMS5003;50156;37.772;-122.432;2022-11-20T04:44:00;51;49;
63969;PMS5003;50156;37.772;-122.432;2022-11-20T04:46:29;50;47;
63969;PMS5003;50156;37.772;-122.432;2022-11-20T04:49:00;45;44;
63969;PMS5003;50156;37.772;-122.432;2022-11-20T04:51:29;36;36;
63969;PMS5003;50156;37.772;-122.432;2022-11-20T04:53:58;45;41;
63969;PMS5003;50156;37.772;-122.432;2022-11-20T04:56:27;55;50;
63969;PMS5003;50156;37.772;-122.432;2022-11-20T04:58:56;44;40;
63969;PMS5003;50156;37.772;-122.432;2022-11-20T05:01:28;56;47;
63969;PMS5003;50156;37.772;-122.432;2022-11-20T05:03:57;38;37;
63969;PMS5003;50156;37.772;-122.432;2022-11-20T05:06:25;35;33;
63969;PMS5003;50156;37.772;-122.432;2022-11-20T05:08:54;38;34;
63969;PMS5003;50156;37.772;-122.432;2022-11-20T05:11:23;35;34;
63969;PMS5003;50156;37.772;-122.432;2022-11-20T05:13:51;38;36;
63969;PMS5003;50156;37.772;-122.432;2022-11-20T05:16:21;43;35;
63969;PMS5003;50156;37.772;-122.432;2022-11-20T05:18:51;38;30;
63969;PMS5003;50156;37.772;-122.432;2022-11-20T05:21:21;42;39;
63969;PMS5003;50156;37.772;-122.432;2022-11-20T05:23:49;40;37;
63969;PMS5003;50156;37.772;-122.432;2022-11-20T05:26:19;43;38;
63969;PMS5003;50156;37.772;-122.432;2022-11-20T05:28:49;38;34;
63969;PMS5003;50156;37.772;-122.432;2022-11-20T05:31:19;44;42;
63969;PMS5003;50156;37.772;-122.432;2022-11-20T05:33:48;38;34;
63969;PMS5003;50156;37.772;-122.432;2022-11-20T05:36:18;33;31;
63969;PMS5003;50156;37.772;-122.432;2022-11-20T05:38:47;38;35;
63969;PMS5003;50156;37.772;-122.432;2022-11-20T05:41:16;36;35;
63969;PMS5003;50156;37.772;-122.432;2022-11-20T05:43:47;46;45;
63969;PMS5003;50156;37.772;-122.432;2022-11-20T05:46:18;36;35;
63969;PMS5003;50156;37.772;-122.432;2022-11-20T05:48:48;44;39;
63969;PMS5003;50156;37.772;-122.432;2022-11-20T05:51:17;32;30;
63969;PMS5003;50156;37.772;-122.432;2022-11-20T05:53:46;34;33;
63969;PMS5003;50156;37.772;-122.432;2022-11-20T05:56:16;34;29;
63969;PMS5003;50156;37.772;-122.432;2022-11-20T05:58:46;51;49;
63969;PMS5003;50156;37.772;-122.432;2022-11-20T06:01:17;30;30;
63969;PMS5003;50156;37.772;-122.432;2022-11-20T06:03:47;27;26;
63969;PMS5003;50156;37.772;-122.432;2022-11-20T06:06:17;35;35;
63969;PMS5003;50156;37.772;-122.432;2022-11-20T06:08:46;33;33;
63969;PMS5003;50156;37.772;-122.432;2022-11-20T06:11:14;43;38;
63969;PMS5003;50156;37.772;-122.432;2022-11-20T06:13:43;32;32;
63969;PMS5003;50156;37.772;-122.432;2022-11-20T06:16:13;42;34;
63969;PMS5003;50156;37.772;-122.432;2022-11-20T06:18:44;32;32;
63969;PMS5003;50156;37.772;-122.432;2022-11-20T06:21:13;30;28;
63969;PMS5003;50156;37.772;-122.432;2022-11-20T06:23:43;33;31;
63969;PMS5003;50156;37.772;-122.432;2022-11-20T06:26:14;37;34;
63969;PMS5003;50156;37.772;-122.432;2022-11-20T06:28:44;40;37;
63969;PMS5003;50156;37.772;-122.432;2022-11-20T06:31:13;36;35;
63969;PMS5003;50156;37.772;-122.432;2022-11-20T06:33:43;43;36;
63969;PMS5003;50156;37.772;-122.432;2022-11-20T06:36:13;30;27;
63969;PMS5003;50156;37.772;-122.432;2022-11-20T06:38:43;37;28;
63969;PMS5003;50156;37.772;-122.432;2022-11-20T06:41:12;32;30;
63969;PMS5003;50156;37.772;-122.432;2022-11-20T06:43:44;32;28;
63969;PMS5003;50156;37.772;-122.432;2022-11-20T06:46:13;26;26;
63969;PMS5003;50156;37.772;-122.432;2022-11-20T06:48:43;37;35;
63969;PMS5003;50156;37.772;-122.432;2022-11-20T06:51:13;72;65;
63969;PMS5003;50156;37.772;-122.432;2022-11-20T06:53:41;75;69;
63969;PMS5003;50156;37.772;-122.432;2022-11-20T06:56:09;79;76;
63969;PMS5003;50156;37.772;-122.432;2022-11-20T06:58:38;47;46;
63969;PMS5003;50156;37.772;-122.432;2022-11-20T07:01:07;37;35;
63969;PMS5003;50156;37.772;-122.432;2022-11-20T07:03:38;38;36;
63969;PMS5003;50156;37.772;-122.432;2022-11-20T07:06:07;39;38;
63969;PMS5003;50156;37.772;-122.432;2022-11-20T07:08:36;38;34;
63969;PMS5003;50156;37.772;-122.432;2022-11-20T07:11:06;29;29;
63969;PMS5003;50156;37.772;-122.432;2022-11-20T07:13:35;43;40;
63969;PMS5003;50156;37.772;-122.432;2022-11-20T07:16:05;34;30;
63969;PMS5003;50156;37.772;-122.432;2022-11-20T07:18:34;36;32;
63969;PMS5003;50156;37.772;-122.432;2022-11-20T07:21:03;34;33;
63969;PMS5003;50156;37.772;-122.432;2022-11-20T07:23:33;32;31;
63969;PMS5003;50156;37.772;-122.432;2022-11-20T07:26:03;36;35;
63969;PMS5003;50156;37.772;-122.432;2022-11-20T07:28:32;45;43;
63969;PMS5003;50156;37.772;-122.432;2022-11-20T07:31:01;37;35;
63969;PMS5003;50156;37.772;-122.432;2022-11-20T07:33:31;57;49;
63969;PMS5003;50156;37.772;-122.432;2022-11-20T07:35:59;43;43;
63969;PMS5003;50156;37.772;-122.432;2022-11-20T07:38:28;40;36;
63969;PMS5003;50156;37.772;-122.432;2022-11-20T07:40:56;40;39;
63969;PMS5003;50156;37.772;-122.432;2022-11-20T07:43:25;46;38;
63969;PMS5003;50156;37.772;-122.432;2022-11-20T07:45:55;41;41;
63969;PMS5003;50156;37.772;-122.432;2022-11-20T07:48:23;37;37;
63969;PMS5003;50156;37.772;-122.432;2022-11-20T07:50:53;41;38;
63969;PMS5003;50156;37.772;-122.432;2022-11-20T07:53:22;39;35;
63969;PMS5003;50156;37.772;-122.432;2022-11-20T07:55:51;39;38;
63969;PMS5003;50156;37.772;-122.432;2022-11-20T07:58:19;38;36;
63969;PMS5003;50156;37.772;-122.432;2022-11-20T08:00:48;34;34;
63969;PMS5003;50156;37.772;-122.432;2022-11-20T08:03:17;30;29;
63969;PMS5003;50156;37.772;-122.432;2022-11-20T08:05:45;36;33;
63969;PMS5003;50156;37.772;-122.432;2022-11-20T08:08:14;31;31;
63969;PMS5003;50156;37.772;-122.432;2022-11-20T08:10:42;31;28;
63969;PMS5003;50156;37.772;-122.432;2022-11-20T08:13:10;37;35;
63969;PMS5003;50156;37.772;-122.432;2022-11-20T08:15:39;33;28;
63969;PMS5003;50156;37.772;-122.432;2022-11-20T08:18:08;34;31;
63969;PMS5003;50156;37.772;-122.432;2022-11-20T08:20:38;35;34;
63969;PMS5003;50156;37.772;-122.432;2022-11-20T08:23:07;35;35;
63969;PMS5003;50156;37.772;-122.432;2022-11-20T08:25:36;36;34;
63969;PMS5003;50156;37.772;-122.432;2022-11-20T08:28:05;34;32;
63969;PMS5003;50156;37.772;-122.432;2022-11-20T08:30:34;39;36;
63969;PMS5003;50156;37.772;-122.432;2022-11-20T08:33:05;36;35;
63969;PMS5003;50156;37.772;-122.432;2022-11-20T08:35:36;43;41;
63969;PMS5003;50156;37.772;-122.432;2022-11-20T08:38:05;37;34;
63969;PMS5003;50156;37.772;-122.432;2022-11-20T08:40:33;36;35;
63969;PMS5003;50156;37.772;-122.432;2022-11-20T08:43:02;37;34;
63969;PMS5003;50156;37.772;-122.432;2022-11-20T08:45:31;40;40;
63969;PMS5003;50156;37.772;-122.432;2022-11-20T08:48:00;39;35;
63969;PMS5003;50156;37.772;-122.432;2022-11-20T08:50:28;38;37;
63969;PMS5003;50156;37.772;-122.432;2022-11-20T08:53:01;42;39;
63969;PMS5003;50156;37.772;-122.432;2022-11-20T08:55:31;37;37;
63969;PMS5003;50156;37.772;-122.432;2022-11-20T08:58:03;39;36;
63969;PMS5003;50156;37.772;-122.432;2022-11-20T09:00:32;41;37;
63969;PMS5003;50156;37.772;-122.432;2022-11-20T09:03:01;38;36;
63969;PMS5003;50156;37.772;-122.432;2022-11-20T09:05:29;41;39;
63969;PMS5003;50156;37.772;-122.432;2022-11-20T09:07:58;34;30;
63969;PMS5003;50156;37.772;-122.432;2022-11-20T09:10:27;38;35;
63969;PMS5003;50156;37.772;-122.432;2022-11-20T09:12:56;49;44;
63969;PMS5003;50156;37.772;-122.432;2022-11-20T09:15:25;37;37;
63969;PMS5003;50156;37.772;-122.432;2022-11-20T09:17:54;36;33;
63969;PMS5003;50156;37.772;-122.432;2022-11-20T09:20:24;35;33;
63969;PMS5003;50156;37.772;-122.432;2022-11-20T09:22:53;40;35;
63969;PMS5003;50156;37.772;-122.432;2022-11-20T09:25:22;43;40;
63969;PMS5003;50156;37.772;-122.432;2022-11-20T09:27:54;41;41;
63969;PMS5003;50156;37.772;-122.432;2022-11-20T09:30:23;43;38;
63969;PMS5003;50156;37.772;-122.432;2022-11-20T09:32:53;37;37;
63969;PMS5003;50156;37.772;-122.432;2022-11-20T09:35:22;44;41;
63969;PMS5003;50156;37.772;-122.432;2022-11-20T09:37:50;48;40;
63969;PMS5003;50156;37.772;-122.432;2022-11-20T09:40:20;39;34;
63969;PMS5003;50156;37.772;-122.432;2022-11-20T09:42:51;40;37;
63969;PMS5003;50156;37.772;-122.432;2022-11-20T09:45:27;42;38;
63969;PMS5003;50156;37.772;-122.432;2022-11-20T09:48:11;37;34;
63969;PMS5003;50156;37.772;-122.432;2022-11-20T09:50:53;42;40;
63969;PMS5003;50156;37.772;-122.432;2022-11-20T09:53:30;44;39;
63969;PMS5003;50156;37.772;-122.432;2022-11-20T09:56:06;44;41;
63969;PMS5003;50156;37.772;-122.432;2022-11-20T09:58:39;46;43;
63969;PMS5003;50156;37.772;-122.432;2022-11-20T10:01:11;39;34;
63969;PMS5003;50156;37.772;-122.432;2022-11-20T10:03:44;48;40;
63969;PMS5003;50156;37.772;-122.432;2022-11-20T10:06:21;46;42;
63969;PMS5003;50156;37.772;-122.432;2022-11-20T10:08:56;43;42;
63969;PMS5003;50156;37.772;-122.432;2022-11-20T10:11:35;35;30;
63969;PMS5003;50156;37.772;-122.432;2022-11-20T10:14:15;30;26;
63969;PMS5003;50156;37.772;-122.432;2022-11-20T10:16:53;30;30;
63969;PMS5003;50156;37.772;-122.432;2022-11-20T10:19:33;30;29;
63969;PMS5003;50156;37.772;-122.432;2022-11-20T10:22:14;26;22;
63969;PMS5003;50156;37.772;-122.432;2022-11-20T10:24:56;27;25;
63969;PMS5003;50156;37.772;-122.432;2022-11-20T10:27:33;21;21;
63969;PMS5003;50156;37.772;-122.432;2022-11-20T10:30:12;24;22;
63969;PMS5003;50156;37.772;-122.432;2022-11-20T10:32:43;22;21;
63969;PMS5003;50156;37.772;-122.432;2022-11-20T10:35:19;22;22;
63969;PMS5003;50156;37.772;-122.432;2022-11-20T10:37:53;21;19;
63969;PMS5003;50156;37.772;-122.432;2022-11-20T10:40:27;23;20;
63969;PMS5003;50156;37.772;-122.432;2022-11-20T10:43:02;19;18;
63969;PMS5003;50156;37.772;-122.432;2022-11-20T10:45:40;20;20;
63969;PMS5003;50156;37.772;-122.432;2022-11-20T10:48:16;24;23;
63969;PMS5003;50156;37.772;-122.432;2022-11-20T10:50:53;25;23;
63969;PMS5003;50156;37.772;-122.432;2022-11-20T10:53:42;25;23;
63969;PMS5003;50156;37.772;-122.432;2022-11-20T10:56:22;21;21;
63969;PMS5003;50156;37.772;-122.432;2022-11-20T10:59:03;19;19;
63969;PMS5003;50156;37.772;-122.432;2022-11-20T11:01:49;21;19;
63969;PMS5003;50156;37.772;-122.432;2022-11-20T11:04:21;20;19;
63969;PMS5003;50156;37.772;-122.432;2022-11-20T11:07:04;23;23;
63969;PMS5003;50156;37.772;-122.432;2022-11-20T11:09:38;21;21;
63969;PMS5003;50156;37.772;-122.432;2022-11-20T11:12:11;21;19;
63969;PMS5003;50156;37.772;-122.432;2022-11-20T11:14:45;21;18;
63969;PMS5003;50156;37.772;-122.432;2022-11-20T11:17:20;22;22;
63969;PMS5003;50156;37.772;-122.432;2022-11-20T11:20:00;27;25;
63969;PMS5003;50156;37.772;-122.432;2022-11-20T11:22:32;21;21;
63969;PMS5003;50156;37.772;-122.432;2022-11-20T11:25:11;22;22;
63969;PMS5003;50156;37.772;-122.432;2022-11-20T11:27:50;25;21;
63969;PMS5003;50156;37.772;-122.432;2022-11-20T11:30:20;21;21;
63969;PMS5003;50156;37.772;-122.432;2022-11-20T11:32:49;20;20;
63969;PMS5003;50156;37.772;-122.432;2022-11-20T11:35:22;22;20;
63969;PMS5003;50156;37.772;-122.432;2022-11-20T11:37:53;22;22;
63969;PMS5003;50156;37.772;-122.432;2022-11-20T11:40:32;18;15;
63969;PMS5003;50156;37.772;-122.432;2022-11-20T11:43:04;22;20;
63969;PMS5003;50156;37.772;-122.432;2022-11-20T11:45:50;26;24;
63969;PMS5003;50156;37.772;-122.432;2022-11-20T11:48:21;27;24;
63969;PMS5003;50156;37.772;-122.432;2022-11-20T11:50:50;21;21;
63969;PMS5003;50156;37.772;-122.432;2022-11-20T11:53:19;20;20;
63969;PMS5003;50156;37.772;-122.432;2022-11-20T11:55:51;23;21;
63969;PMS5003;50156;37.772;-122.432;2022-11-20T11:58:33;20;18;
63969;PMS5003;50156;37.772;-122.432;2022-11-20T12:01:16;23;23;
63969;PMS5003;50156;37.772;-122.432;2022-11-20T12:03:55;21;21;
63969;PMS5003;50156;37.772;-122.432;2022-11-20T12:06:31;21;19;
63969;PMS5003;50156;37.772;-122.432;2022-11-20T12:09:04;21;20;
63969;PMS5003;50156;37.772;-122.432;2022-11-20T12:11:37;21;18;
63969;PMS5003;50156;37.772;-122.432;2022-11-20T12:14:13;17;17;
63969;PMS5003;50156;37.772;-122.432;2022-11-20T12:16:45;24;23;
63969;PMS5003;50156;37.772;-122.432;2022-11-20T12:19:14;19;19;
63969;PMS5003;50156;37.772;-122.432;2022-11-20T12:21:45;16;16;
63969;PMS5003;50156;37.772;-122.432;2022-11-20T12:24:30;20;19;
63969;PMS5003;50156;37.772;-122.432;2022-11-20T12:27:14;18;17;
63969;PMS5003;50156;37.772;-122.432;2022-11-20T12:30:10;15;15;
63969;PMS5003;50156;37.772;-122.432;2022-11-20T12:32:54;19;17;
63969;PMS5003;50156;37.772;-122.432;2022-11-20T12:35:40;17;15;
63969;PMS5003;50156;37.772;-122.432;2022-11-20T12:38:24;16;16;
63969;PMS5003;50156;37.772;-122.432;2022-11-20T12:41:45;17;17;
63969;PMS5003;50156;37.772;-122.432;2022-11-20T12:44:33;17;16;
63969;PMS5003;50156;37.772;-122.432;2022-11-20T12:47:13;19;14;
63969;PMS5003;50156;37.772;-122.432;2022-11-20T12:49:52;18;18;
63969;PMS5003;50156;37.772;-122.432;2022-11-20T12:52:32;17;15;
63969;PMS5003;50156;37.772;-122.432;2022-11-20T12:55:12;19;19;
63969;PMS5003;50156;37.772;-122.432;2022-11-20T12:57:54;15;15;
63969;PMS5003;50156;37.772;-122.432;2022-11-20T13:00:30;17;17;
63969;PMS5003;50156;37.772;-122.432;2022-11-20T13:03:07;16;13;
63969;PMS5003;50156;37.772;-122.432;2022-11-20T13:05:57;20;17;
63969;PMS5003;50156;37.772;-122.432;2022-11-20T13:08:33;16;15;
63969;PMS5003;50156;37.772;-122.432;2022-11-20T13:11:06;18;16;
63969;PMS5003;50156;37.772;-122.432;2022-11-20T13:13:45;14;14;
63969;PMS5003;50156;37.772;-122.432;2022-11-20T13:16:29;20;18;
63969;PMS5003;50156;37.772;-122.432;2022-11-20T13:19:04;13;13;
63969;PMS5003;50156;37.772;-122.432;2022-11-20T13:21:39;16;16;
63969;PMS5003;50156;37.772;-122.432;2022-11-20T13:24:20;22;19;
63969;PMS5003;50156;37.772;-122.432;2022-11-20T13:26:59;17;17;
63969;PMS5003;50156;37.772;-122.432;2022-11-20T13:29:29;21;18;
63969;PMS5003;50156;37.772;-122.432;2022-11-20T13:32:03;19;18;
63969;PMS5003;50156;37.772;-122.432;2022-11-20T13:34:33;23;19;
63969;PMS5003;50156;37.772;-122.432;2022-11-20T13:37:01;16;16;
63969;PMS5003;50156;37.772;-122.432;2022-11-20T13:39:30;15;15;
63969;PMS5003;50156;37.772;-122.432;2022-11-20T13:42:00;14;14;
63969;PMS5003;50156;37.772;-122.432;2022-11-20T13:44:47;18;16;
63969;PMS5003;50156;37.772;-122.432;2022-11-20T13:47:20;19;17;
63969;PMS5003;50156;37.772;-122.432;2022-11-20T13:49:51;18;18;
63969;PMS5003;50156;37.772;-122.432;2022-11-20T13:52:29;17;17;
63969;PMS5003;50156;37.772;-122.432;2022-11-20T13:55:12;20;16;
63969;PMS5003;50156;37.772;-122.432;2022-11-20T13:57:57;18;16;
63969;PMS5003;50156;37.772;-122.432;2022-11-20T14:00:43;17;17;
63969;PMS5003;50156;37.772;-122.432;2022-11-20T14:03:17;19;18;
63969;PMS5003;50156;37.772;-122.432;2022-11-20T14:05:49;18;17;
63969;PMS5003;50156;37.772;-122.432;2022-11-20T14:08:24;19;19;
63969;PMS5003;50156;37.772;-122.432;2022-11-20T14:11:06;18;18;
63969;PMS5003;50156;37.772;-122.432;2022-11-20T14:13:51;21;19;
63969;PMS5003;50156;37.772;-122.432;2022-11-20T14:16:23;16;16;
63969;PMS5003;50156;37.772;-122.432;2022-11-20T14:18:53;20;18;
63969;PMS5003;50156;37.772;-122.432;2022-11-20T14:21:23;18;15;
63969;PMS5003;50156;37.772;-122.432;2022-11-20T14:23:53;17;16;
63969;PMS5003;50156;37.772;-122.432;2022-11-20T14:26:30;15;15;
63969;PMS5003;50156;37.772;-122.432;2022-11-20T14:28:59;17;17;
63969;PMS5003;50156;37.772;-122.432;2022-11-20T14:31:27;20;19;
63969;PMS5003;50156;37.772;-122.432;2022-11-20T14:33:56;22;19;
63969;PMS5003;50156;37.772;-122.432;2022-11-20T14:36:24;16;16;
63969;PMS5003;50156;37.772;-122.432;2022-11-20T14:38:54;19;17;
63969;PMS5003;50156;37.772;-122.432;2022-11-20T14:41:23;18;16;
63969;PMS5003;50156;37.772;-122.432;2022-11-20T14:43:54;16;16;
63969;PMS5003;50156;37.772;-122.432;2022-11-20T14:46:25;16;16;
63969;PMS5003;50156;37.772;-122.432;2022-11-20T14:48:55;16;16;
63969;PMS5003;50156;37.772;-122.432;2022-11-20T14:51:28;18;16;
63969;PMS5003;50156;37.772;-122.432;2022-11-20T14:54:08;18;18;
63969;PMS5003;50156;37.772;-122.432;2022-11-20T14:56:37;15;15;
63969;PMS5003;50156;37.772;-122.432;2022-11-20T14:59:06;16;15;
63969;PMS5003;50156;37.772;-122.432;2022-11-20T15:01:36;17;16;
63969;PMS5003;50156;37.772;-122.432;2022-11-20T15:04:05;16;16;
63969;PMS5003;50156;37.772;-122.432;2022-11-20T15:06:37;18;15;
63969;PMS5003;50156;37.772;-122.432;2022-11-20T15:09:16;17;15;
63969;PMS5003;50156;37.772;-122.432;2022-11-20T15:11:51;18;18;
63969;PMS5003;50156;37.772;-122.432;2022-11-20T15:14:22;13;13;
63969;PMS5003;50156;37.772;-122.432;2022-11-20T15:16:53;21;16;
63969;PMS5003;50156;37.772;-122.432;2022-11-20T15:19:22;17;17;
63969;PMS5003;50156;37.772;-122.432;2022-11-20T15:21:52;17;17;
63969;PMS5003;50156;37.772;-122.432;2022-11-20T15:24:20;21;21;
63969;PMS5003;50156;37.772;-122.432;2022-11-20T15:26:48;18;14;
63969;PMS5003;50156;37.772;-122.432;2022-11-20T15:29:24;21;20;
63969;PMS5003;50156;37.772;-122.432;2022-11-20T15:31:52;20;20;
63969;PMS5003;50156;37.772;-122.432;2022-11-20T15:34:21;17;17;
63969;PMS5003;50156;37.772;-122.432;2022-11-20T15:36:49;19;16;
63969;PMS5003;50156;37.772;-122.432;2022-11-20T15:39:17;19;17;
63969;PMS5003;50156;37.772;-122.432;2022-11-20T15:41:46;17;17;
63969;PMS5003;50156;37.772;-122.432;2022-11-20T15:44:14;19;17;
63969;PMS5003;50156;37.772;-122.432;2022-11-20T15:46:43;26;23;
63969;PMS5003;50156;37.772;-122.432;2022-11-20T15:49:12;20;17;
63969;PMS5003;50156;37.772;-122.432;2022-11-20T15:51:42;17;17;
63969;PMS5003;50156;37.772;-122.432;2022-11-20T15:54:14;22;19;
63969;PMS5003;50156;37.772;-122.432;2022-11-20T15:56:44;22;21;
63969;PMS5003;50156;37.772;-122.432;2022-11-20T15:59:13;21;19;
63969;PMS5003;50156;37.772;-122.432;2022-11-20T16:01:41;25;23;